sensor_id;sensor_type;location;lat;lon;timestamp;temperature;humidity
2174;DHT22;1093;51.424;11.764;2024-03-08T00:05:07;1.50;1.40
2174;DHT22;1093;51.424;11.764;2024-03-08T00:08:19;1.60;1.40
2174;DHT22;1093;51.424;11.764;2024-03-08T00:11:34;1.50;1.40
2174;DHT22;1093;51.424;11.764;2024-03-08T00:17:24;1.50;1.40
2174;DHT22;1093;51.424;11.764;2024-03-08T00:20:42;1.50;1.40
2174;DHT22;1093;51.424;11.764;2024-03-08T00:23:46;1.40;1.40
2174;DHT22;1093;51.424;11.764;2024-03-08T00:30:34;1.40;1.40
2174;DHT22;1093;51.424;11.764;2024-03-08T00:56:19;1.00;1.40
2174;DHT22;1093;51.424;11.764;2024-03-08T00:59:06;1.00;1.40
2174;DHT22;1093;51.424;11.764;2024-03-08T01:02:03;1.00;1.40
2174;DHT22;1093;51.424;11.764;2024-03-08T01:05:02;1.00;1.40
2174;DHT22;1093;51.424;11.764;2024-03-08T01:07:57;0.90;1.40
2174;DHT22;1093;51.424;11.764;2024-03-08T01:14:23;0.90;1.40
2174;DHT22;1093;51.424;11.764;2024-03-08T01:17:17;0.90;1.40
2174;DHT22;1093;51.424;11.764;2024-03-08T01:20:23;0.90;1.40
2174;DHT22;1093;51.424;11.764;2024-03-08T01:23:21;0.90;1.40
2174;DHT22;1093;51.424;11.764;2024-03-08T01:39:22;0.90;1.40
2174;DHT22;1093;51.424;11.764;2024-03-08T01:42:35;0.90;1.40
2174;DHT22;1093;51.424;11.764;2024-03-08T01:48:26;0.90;1.40
2174;DHT22;1093;51.424;11.764;2024-03-08T01:48:56;0.90;1.40
2174;DHT22;1093;51.424;11.764;2024-03-08T01:51:48;0.80;1.40
2174;DHT22;1093;51.424;11.764;2024-03-08T02:02:02;0.70;1.40
2174;DHT22;1093;51.424;11.764;2024-03-08T02:05:11;0.70;1.40
2174;DHT22;1093;51.424;11.764;2024-03-08T02:11:19;0.70;1.40
2174;DHT22;1093;51.424;11.764;2024-03-08T02:14:19;0.60;1.40
2174;DHT22;1093;51.424;11.764;2024-03-08T02:31:10;0.40;1.40
2174;DHT22;1093;51.424;11.764;2024-03-08T02:34:37;0.30;1.40
2174;DHT22;1093;51.424;11.764;2024-03-08T02:37:23;0.30;1.40
2174;DHT22;1093;51.424;11.764;2024-03-08T02:40:17;0.30;1.40
2174;DHT22;1093;51.424;11.764;2024-03-08T02:43:13;0.30;1.40
2174;DHT22;1093;51.424;11.764;2024-03-08T02:49:00;0.30;1.40
2174;DHT22;1093;51.424;11.764;2024-03-08T02:51:51;0.30;1.40
2174;DHT22;1093;51.424;11.764;2024-03-08T02:54:38;0.30;1.40
2174;DHT22;1093;51.424;11.764;2024-03-08T02:57:53;0.30;1.40
2174;DHT22;1093;51.424;11.764;2024-03-08T03:00:52;0.30;1.40
2174;DHT22;1093;51.424;11.764;2024-03-08T03:27:32;0.10;1.40
2174;DHT22;1093;51.424;11.764;2024-03-08T03:30:15;0.00;1.40
2174;DHT22;1093;51.424;11.764;2024-03-08T03:32:49;0.00;1.40
2174;DHT22;1093;51.424;11.764;2024-03-08T03:35:17;-0.10;1.40
2174;DHT22;1093;51.424;11.764;2024-03-08T03:37:44;-0.10;1.40
2174;DHT22;1093;51.424;11.764;2024-03-08T03:40:16;-0.10;1.40
2174;DHT22;1093;51.424;11.764;2024-03-08T03:42:46;-0.10;1.40
2174;DHT22;1093;51.424;11.764;2024-03-08T03:45:13;-0.20;1.40
2174;DHT22;1093;51.424;11.764;2024-03-08T03:47:45;-0.20;1.40
2174;DHT22;1093;51.424;11.764;2024-03-08T03:50:12;-0.20;1.40
2174;DHT22;1093;51.424;11.764;2024-03-08T03:52:39;-0.20;1.40
2174;DHT22;1093;51.424;11.764;2024-03-08T03:55:08;-0.20;1.40
2174;DHT22;1093;51.424;11.764;2024-03-08T03:57:37;-0.20;1.40
2174;DHT22;1093;51.424;11.764;2024-03-08T04:00:06;-0.20;1.40
2174;DHT22;1093;51.424;11.764;2024-03-08T04:02:36;-0.30;1.40
2174;DHT22;1093;51.424;11.764;2024-03-08T04:05:04;-0.30;1.40
2174;DHT22;1093;51.424;11.764;2024-03-08T04:07:31;-0.30;1.40
2174;DHT22;1093;51.424;11.764;2024-03-08T04:09:58;-0.30;1.40
2174;DHT22;1093;51.424;11.764;2024-03-08T04:12:25;-0.40;1.40
2174;DHT22;1093;51.424;11.764;2024-03-08T04:14:52;-0.40;1.40
2174;DHT22;1093;51.424;11.764;2024-03-08T04:17:22;-0.40;1.40
2174;DHT22;1093;51.424;11.764;2024-03-08T04:19:49;-0.40;1.40
2174;DHT22;1093;51.424;11.764;2024-03-08T04:22:16;-0.50;1.40
2174;DHT22;1093;51.424;11.764;2024-03-08T04:24:43;-0.50;1.40
2174;DHT22;1093;51.424;11.764;2024-03-08T04:27:11;-0.50;1.40
2174;DHT22;1093;51.424;11.764;2024-03-08T04:29:38;-0.60;1.40
2174;DHT22;1093;51.424;11.764;2024-03-08T04:32:05;-0.60;1.40
2174;DHT22;1093;51.424;11.764;2024-03-08T04:34:35;-0.60;1.40
2174;DHT22;1093;51.424;11.764;2024-03-08T04:37:02;-0.70;1.40
2174;DHT22;1093;51.424;11.764;2024-03-08T04:39:30;-0.70;1.40
2174;DHT22;1093;51.424;11.764;2024-03-08T04:41:59;-0.70;1.40
2174;DHT22;1093;51.424;11.764;2024-03-08T04:44:28;-0.70;1.40
2174;DHT22;1093;51.424;11.764;2024-03-08T04:46:55;-0.70;1.40
2174;DHT22;1093;51.424;11.764;2024-03-08T04:49:22;-0.80;1.40
2174;DHT22;1093;51.424;11.764;2024-03-08T04:51:50;-0.80;1.40
2174;DHT22;1093;51.424;11.764;2024-03-08T04:54:17;-0.70;1.40
2174;DHT22;1093;51.424;11.764;2024-03-08T04:56:44;-0.70;1.40
2174;DHT22;1093;51.424;11.764;2024-03-08T04:59:11;-0.70;1.40
2174;DHT22;1093;51.424;11.764;2024-03-08T05:01:39;-0.70;1.40
2174;DHT22;1093;51.424;11.764;2024-03-08T05:04:06;-0.70;1.40
2174;DHT22;1093;51.424;11.764;2024-03-08T05:06:32;-0.70;1.40
2174;DHT22;1093;51.424;11.764;2024-03-08T05:09:00;-0.80;1.40
2174;DHT22;1093;51.424;11.764;2024-03-08T05:11:38;-0.80;1.40
2174;DHT22;1093;51.424;11.764;2024-03-08T05:14:05;-0.80;1.40
2174;DHT22;1093;51.424;11.764;2024-03-08T05:16:32;-0.80;1.40
2174;DHT22;1093;51.424;11.764;2024-03-08T05:18:59;-0.80;1.40
2174;DHT22;1093;51.424;11.764;2024-03-08T05:21:26;-0.80;1.40
2174;DHT22;1093;51.424;11.764;2024-03-08T05:23:54;-0.80;1.40
2174;DHT22;1093;51.424;11.764;2024-03-08T05:26:22;-0.90;1.40
2174;DHT22;1093;51.424;11.764;2024-03-08T05:28:49;-0.90;1.40
2174;DHT22;1093;51.424;11.764;2024-03-08T05:31:19;-0.90;1.40
2174;DHT22;1093;51.424;11.764;2024-03-08T05:33:47;-0.90;1.40
2174;DHT22;1093;51.424;11.764;2024-03-08T05:36:14;-0.90;1.40
2174;DHT22;1093;51.424;11.764;2024-03-08T05:38:42;-0.90;1.40
2174;DHT22;1093;51.424;11.764;2024-03-08T05:41:09;-0.90;1.40
2174;DHT22;1093;51.424;11.764;2024-03-08T05:43:37;-0.90;1.40
2174;DHT22;1093;51.424;11.764;2024-03-08T05:46:03;-0.90;1.40
2174;DHT22;1093;51.424;11.764;2024-03-08T05:48:31;-0.90;1.40
2174;DHT22;1093;51.424;11.764;2024-03-08T05:50:58;-0.80;1.40
2174;DHT22;1093;51.424;11.764;2024-03-08T05:53:27;-0.80;1.40
2174;DHT22;1093;51.424;11.764;2024-03-08T05:55:57;-0.80;1.40
2174;DHT22;1093;51.424;11.764;2024-03-08T05:58:23;-0.80;1.40
2174;DHT22;1093;51.424;11.764;2024-03-08T06:00:52;-0.80;1.40
2174;DHT22;1093;51.424;11.764;2024-03-08T06:03:18;-0.80;1.40
2174;DHT22;1093;51.424;11.764;2024-03-08T06:05:47;-0.80;1.40
2174;DHT22;1093;51.424;11.764;2024-03-08T06:08:14;-0.80;1.40
2174;DHT22;1093;51.424;11.764;2024-03-08T06:10:41;-0.80;1.40
2174;DHT22;1093;51.424;11.764;2024-03-08T06:13:08;-0.80;1.40
2174;DHT22;1093;51.424;11.764;2024-03-08T06:15:37;-0.80;1.40
2174;DHT22;1093;51.424;11.764;2024-03-08T06:18:06;-0.80;1.40
2174;DHT22;1093;51.424;11.764;2024-03-08T06:20:36;-0.80;1.40
2174;DHT22;1093;51.424;11.764;2024-03-08T06:23:03;-0.80;1.40
2174;DHT22;1093;51.424;11.764;2024-03-08T06:25:30;-0.80;1.40
2174;DHT22;1093;51.424;11.764;2024-03-08T06:27:56;-0.80;1.40
2174;DHT22;1093;51.424;11.764;2024-03-08T06:30:23;-0.80;1.40
2174;DHT22;1093;51.424;11.764;2024-03-08T06:32:50;-0.80;1.40
2174;DHT22;1093;51.424;11.764;2024-03-08T06:35:18;-0.90;1.40
2174;DHT22;1093;51.424;11.764;2024-03-08T06:37:45;-0.90;1.40
2174;DHT22;1093;51.424;11.764;2024-03-08T06:40:12;-0.90;1.40
2174;DHT22;1093;51.424;11.764;2024-03-08T06:42:40;-0.90;1.40
2174;DHT22;1093;51.424;11.764;2024-03-08T06:45:07;-0.80;1.40
2174;DHT22;1093;51.424;11.764;2024-03-08T06:47:35;-0.80;1.40
2174;DHT22;1093;51.424;11.764;2024-03-08T06:50:02;-0.90;1.40
2174;DHT22;1093;51.424;11.764;2024-03-08T06:52:32;-0.90;1.40
2174;DHT22;1093;51.424;11.764;2024-03-08T06:54:59;-0.80;1.40
2174;DHT22;1093;51.424;11.764;2024-03-08T06:57:27;-0.90;1.40
2174;DHT22;1093;51.424;11.764;2024-03-08T06:59:55;-0.80;1.40
2174;DHT22;1093;51.424;11.764;2024-03-08T07:02:22;-0.80;1.40
2174;DHT22;1093;51.424;11.764;2024-03-08T07:04:51;-0.80;1.40
2174;DHT22;1093;51.424;11.764;2024-03-08T07:07:18;-0.80;1.40
2174;DHT22;1093;51.424;11.764;2024-03-08T07:09:47;-0.70;1.40
2174;DHT22;1093;51.424;11.764;2024-03-08T07:12:15;-0.70;1.40
2174;DHT22;1093;51.424;11.764;2024-03-08T07:14:43;-0.70;1.40
2174;DHT22;1093;51.424;11.764;2024-03-08T07:17:11;-0.60;1.40
2174;DHT22;1093;51.424;11.764;2024-03-08T07:19:38;-0.60;1.40
2174;DHT22;1093;51.424;11.764;2024-03-08T07:22:05;-0.60;1.40
2174;DHT22;1093;51.424;11.764;2024-03-08T07:24:34;-0.50;1.40
2174;DHT22;1093;51.424;11.764;2024-03-08T07:27:17;-0.40;1.40
2174;DHT22;1093;51.424;11.764;2024-03-08T07:29:46;-0.40;1.40
2174;DHT22;1093;51.424;11.764;2024-03-08T07:32:13;-0.30;1.40
2174;DHT22;1093;51.424;11.764;2024-03-08T07:34:47;-0.30;1.40
2174;DHT22;1093;51.424;11.764;2024-03-08T07:37:14;-0.20;1.40
2174;DHT22;1093;51.424;11.764;2024-03-08T07:39:41;-0.10;1.40
2174;DHT22;1093;51.424;11.764;2024-03-08T07:42:08;-0.10;1.40
2174;DHT22;1093;51.424;11.764;2024-03-08T07:44:36;0.00;1.40
2174;DHT22;1093;51.424;11.764;2024-03-08T07:47:03;0.10;1.40
2174;DHT22;1093;51.424;11.764;2024-03-08T07:49:30;0.20;1.40
2174;DHT22;1093;51.424;11.764;2024-03-08T07:51:57;0.30;1.40
2174;DHT22;1093;51.424;11.764;2024-03-08T07:54:24;0.40;1.40
2174;DHT22;1093;51.424;11.764;2024-03-08T07:56:52;0.50;1.40
2174;DHT22;1093;51.424;11.764;2024-03-08T07:59:19;0.60;1.40
2174;DHT22;1093;51.424;11.764;2024-03-08T08:01:48;0.70;1.40
2174;DHT22;1093;51.424;11.764;2024-03-08T08:04:14;0.80;1.40
2174;DHT22;1093;51.424;11.764;2024-03-08T08:06:43;0.90;1.40
2174;DHT22;1093;51.424;11.764;2024-03-08T08:09:10;1.00;1.40
2174;DHT22;1093;51.424;11.764;2024-03-08T08:11:40;1.10;1.40
2174;DHT22;1093;51.424;11.764;2024-03-08T08:14:09;1.20;1.40
2174;DHT22;1093;51.424;11.764;2024-03-08T08:16:36;1.30;1.40
2174;DHT22;1093;51.424;11.764;2024-03-08T08:19:05;1.40;1.40
2174;DHT22;1093;51.424;11.764;2024-03-08T08:21:33;1.60;1.40
2174;DHT22;1093;51.424;11.764;2024-03-08T08:24:00;1.60;1.40
2174;DHT22;1093;51.424;11.764;2024-03-08T08:26:29;1.80;1.40
2174;DHT22;1093;51.424;11.764;2024-03-08T08:28:55;1.90;1.40
2174;DHT22;1093;51.424;11.764;2024-03-08T08:31:22;2.10;1.40
2174;DHT22;1093;51.424;11.764;2024-03-08T08:33:49;2.20;1.40
2174;DHT22;1093;51.424;11.764;2024-03-08T08:36:19;2.30;1.40
2174;DHT22;1093;51.424;11.764;2024-03-08T08:38:46;2.40;1.40
2174;DHT22;1093;51.424;11.764;2024-03-08T08:41:12;2.60;1.40
2174;DHT22;1093;51.424;11.764;2024-03-08T08:43:39;2.70;1.40
2174;DHT22;1093;51.424;11.764;2024-03-08T08:46:09;2.80;1.40
2174;DHT22;1093;51.424;11.764;2024-03-08T08:48:39;3.10;1.40
2174;DHT22;1093;51.424;11.764;2024-03-08T08:51:09;3.20;1.40
2174;DHT22;1093;51.424;11.764;2024-03-08T08:53:39;3.30;1.40
2174;DHT22;1093;51.424;11.764;2024-03-08T08:56:08;3.40;1.40
2174;DHT22;1093;51.424;11.764;2024-03-08T08:58:47;3.60;1.40
2174;DHT22;1093;51.424;11.764;2024-03-08T09:01:21;3.70;1.40
2174;DHT22;1093;51.424;11.764;2024-03-08T09:04:16;3.80;1.40
2174;DHT22;1093;51.424;11.764;2024-03-08T09:07:46;4.00;1.40
2174;DHT22;1093;51.424;11.764;2024-03-08T09:10:42;4.20;1.40
2174;DHT22;1093;51.424;11.764;2024-03-08T09:23:17;4.70;1.40
2174;DHT22;1093;51.424;11.764;2024-03-08T09:29:40;5.00;1.40
2174;DHT22;1093;51.424;11.764;2024-03-08T09:36:14;5.40;1.40
2174;DHT22;1093;51.424;11.764;2024-03-08T09:39:14;5.50;1.40
2174;DHT22;1093;51.424;11.764;2024-03-08T09:41:59;5.60;1.40
2174;DHT22;1093;51.424;11.764;2024-03-08T09:45:01;5.70;1.40
2174;DHT22;1093;51.424;11.764;2024-03-08T09:51:26;5.90;1.40
2174;DHT22;1093;51.424;11.764;2024-03-08T09:57:19;6.20;1.40
2174;DHT22;1093;51.424;11.764;2024-03-08T09:59:48;6.30;1.40
2174;DHT22;1093;51.424;11.764;2024-03-08T10:02:38;6.40;1.40
2174;DHT22;1093;51.424;11.764;2024-03-08T10:05:17;6.40;1.40
2174;DHT22;1093;51.424;11.764;2024-03-08T10:07:56;6.50;1.40
2174;DHT22;1093;51.424;11.764;2024-03-08T10:10:50;6.60;1.40
2174;DHT22;1093;51.424;11.764;2024-03-08T10:23:26;7.00;1.40
2174;DHT22;1093;51.424;11.764;2024-03-08T10:26:20;7.10;1.40
2174;DHT22;1093;51.424;11.764;2024-03-08T10:32:03;7.30;1.40
2174;DHT22;1093;51.424;11.764;2024-03-08T10:34:56;7.30;1.40
2174;DHT22;1093;51.424;11.764;2024-03-08T10:37:51;7.30;1.40
2174;DHT22;1093;51.424;11.764;2024-03-08T10:40:44;7.40;1.40
2174;DHT22;1093;51.424;11.764;2024-03-08T10:43:23;7.50;1.40
2174;DHT22;1093;51.424;11.764;2024-03-08T10:46:20;7.60;1.40
2174;DHT22;1093;51.424;11.764;2024-03-08T10:51:58;7.70;1.40
2174;DHT22;1093;51.424;11.764;2024-03-08T10:52:15;7.60;1.40
2174;DHT22;1093;51.424;11.764;2024-03-08T10:54:54;7.70;1.40
2174;DHT22;1093;51.424;11.764;2024-03-08T10:57:27;7.80;1.40
2174;DHT22;1093;51.424;11.764;2024-03-08T10:59:58;7.90;1.40
2174;DHT22;1093;51.424;11.764;2024-03-08T11:02:37;7.90;1.40
2174;DHT22;1093;51.424;11.764;2024-03-08T11:05:31;7.90;1.40
2174;DHT22;1093;51.424;11.764;2024-03-08T11:08:17;7.90;1.40
2174;DHT22;1093;51.424;11.764;2024-03-08T11:11:28;8.00;1.40
2174;DHT22;1093;51.424;11.764;2024-03-08T11:17:54;8.00;1.40
2174;DHT22;1093;51.424;11.764;2024-03-08T11:20:30;8.10;1.40
2174;DHT22;1093;51.424;11.764;2024-03-08T11:23:09;8.20;1.40
2174;DHT22;1093;51.424;11.764;2024-03-08T11:26:25;8.10;1.40
2174;DHT22;1093;51.424;11.764;2024-03-08T11:29:34;8.20;1.40
2174;DHT22;1093;51.424;11.764;2024-03-08T11:32:32;8.20;1.40
2174;DHT22;1093;51.424;11.764;2024-03-08T11:35:18;8.20;1.40
2174;DHT22;1093;51.424;11.764;2024-03-08T11:38:10;8.30;1.40
2174;DHT22;1093;51.424;11.764;2024-03-08T11:40:45;8.30;1.40
2174;DHT22;1093;51.424;11.764;2024-03-08T11:43:16;8.30;1.40
2174;DHT22;1093;51.424;11.764;2024-03-08T11:45:48;8.30;1.40
2174;DHT22;1093;51.424;11.764;2024-03-08T11:48:49;8.30;1.40
2174;DHT22;1093;51.424;11.764;2024-03-08T11:51:38;8.40;1.40
2174;DHT22;1093;51.424;11.764;2024-03-08T11:54:12;8.40;1.40
2174;DHT22;1093;51.424;11.764;2024-03-08T11:56:42;8.40;1.40
2174;DHT22;1093;51.424;11.764;2024-03-08T11:59:13;8.40;1.40
2174;DHT22;1093;51.424;11.764;2024-03-08T12:01:43;8.50;1.40
2174;DHT22;1093;51.424;11.764;2024-03-08T12:04:14;8.50;1.40
2174;DHT22;1093;51.424;11.764;2024-03-08T12:10:29;8.60;1.40
2174;DHT22;1093;51.424;11.764;2024-03-08T12:13:03;8.70;1.40
2174;DHT22;1093;51.424;11.764;2024-03-08T12:15:37;8.70;1.40
2174;DHT22;1093;51.424;11.764;2024-03-08T12:18:09;8.60;1.40
2174;DHT22;1093;51.424;11.764;2024-03-08T12:20:51;8.70;1.40
2174;DHT22;1093;51.424;11.764;2024-03-08T12:23:27;8.80;1.40
2174;DHT22;1093;51.424;11.764;2024-03-08T12:26:14;8.90;1.40
2174;DHT22;1093;51.424;11.764;2024-03-08T12:28:53;8.90;1.40
2174;DHT22;1093;51.424;11.764;2024-03-08T12:31:41;8.90;1.40
2174;DHT22;1093;51.424;11.764;2024-03-08T12:34:12;9.00;1.40
2174;DHT22;1093;51.424;11.764;2024-03-08T12:36:59;9.00;1.40
2174;DHT22;1093;51.424;11.764;2024-03-08T12:39:30;9.10;1.40
2174;DHT22;1093;51.424;11.764;2024-03-08T12:42:23;9.20;1.40
2174;DHT22;1093;51.424;11.764;2024-03-08T12:45:21;9.10;1.40
2174;DHT22;1093;51.424;11.764;2024-03-08T12:48:35;9.20;1.40
2174;DHT22;1093;51.424;11.764;2024-03-08T12:54:25;9.20;1.40
2174;DHT22;1093;51.424;11.764;2024-03-08T12:57:59;9.20;1.40
2174;DHT22;1093;51.424;11.764;2024-03-08T13:00:18;9.30;1.40
2174;DHT22;1093;51.424;11.764;2024-03-08T13:06:32;9.40;1.40
2174;DHT22;1093;51.424;11.764;2024-03-08T13:09:28;9.50;1.40
2174;DHT22;1093;51.424;11.764;2024-03-08T13:12:50;9.50;1.40
2174;DHT22;1093;51.424;11.764;2024-03-08T13:15:46;9.40;1.40
2174;DHT22;1093;51.424;11.764;2024-03-08T13:18:25;9.50;1.40
2174;DHT22;1093;51.424;11.764;2024-03-08T13:21:19;9.40;1.40
2174;DHT22;1093;51.424;11.764;2024-03-08T13:27:50;9.60;1.40
2174;DHT22;1093;51.424;11.764;2024-03-08T13:30:21;9.70;1.40
2174;DHT22;1093;51.424;11.764;2024-03-08T13:32:55;9.70;1.40
2174;DHT22;1093;51.424;11.764;2024-03-08T13:35:38;9.70;1.40
2174;DHT22;1093;51.424;11.764;2024-03-08T13:38:07;9.80;1.40
2174;DHT22;1093;51.424;11.764;2024-03-08T13:40:44;9.80;1.40
2174;DHT22;1093;51.424;11.764;2024-03-08T13:43:50;9.70;1.40
2174;DHT22;1093;51.424;11.764;2024-03-08T13:46:35;9.80;1.40
2174;DHT22;1093;51.424;11.764;2024-03-08T13:49:20;9.80;1.40
2174;DHT22;1093;51.424;11.764;2024-03-08T13:51:47;9.80;1.40
2174;DHT22;1093;51.424;11.764;2024-03-08T13:54:21;9.90;1.40
2174;DHT22;1093;51.424;11.764;2024-03-08T13:56:50;10.00;1.40
2174;DHT22;1093;51.424;11.764;2024-03-08T13:59:35;9.90;1.40
2174;DHT22;1093;51.424;11.764;2024-03-08T14:02:09;9.90;1.40
2174;DHT22;1093;51.424;11.764;2024-03-08T14:08:10;9.90;1.40
2174;DHT22;1093;51.424;11.764;2024-03-08T14:11:11;9.90;1.40
2174;DHT22;1093;51.424;11.764;2024-03-08T14:13:44;10.00;1.40
2174;DHT22;1093;51.424;11.764;2024-03-08T14:16:33;10.10;1.40
2174;DHT22;1093;51.424;11.764;2024-03-08T14:19:29;10.20;1.40
2174;DHT22;1093;51.424;11.764;2024-03-08T14:22:23;10.20;1.40
2174;DHT22;1093;51.424;11.764;2024-03-08T14:24:52;10.20;1.40
2174;DHT22;1093;51.424;11.764;2024-03-08T14:27:32;10.20;1.40
2174;DHT22;1093;51.424;11.764;2024-03-08T14:30:10;10.20;1.40
2174;DHT22;1093;51.424;11.764;2024-03-08T14:33:15;10.20;1.40
2174;DHT22;1093;51.424;11.764;2024-03-08T14:36:12;10.20;1.40
2174;DHT22;1093;51.424;11.764;2024-03-08T14:38:48;10.20;1.40
2174;DHT22;1093;51.424;11.764;2024-03-08T14:41:33;10.20;1.40
2174;DHT22;1093;51.424;11.764;2024-03-08T14:44:15;10.20;1.40
2174;DHT22;1093;51.424;11.764;2024-03-08T14:46:58;10.10;1.40
2174;DHT22;1093;51.424;11.764;2024-03-08T15:20:14;10.00;1.40
2174;DHT22;1093;51.424;11.764;2024-03-08T15:23:17;9.90;1.40
2174;DHT22;1093;51.424;11.764;2024-03-08T16:25:54;8.80;1.40
2174;DHT22;1093;51.424;11.764;2024-03-08T16:32:41;8.90;1.40
2174;DHT22;1093;51.424;11.764;2024-03-08T16:42:29;8.50;1.40
2174;DHT22;1093;51.424;11.764;2024-03-08T17:15:40;8.00;1.40
2174;DHT22;1093;51.424;11.764;2024-03-08T17:19:03;7.90;1.40
2174;DHT22;1093;51.424;11.764;2024-03-08T17:21:56;7.80;1.40
2174;DHT22;1093;51.424;11.764;2024-03-08T20:14:39;5.50;1.40
2174;DHT22;1093;51.424;11.764;2024-03-08T20:17:06;5.40;1.40
2174;DHT22;1093;51.424;11.764;2024-03-08T20:19:34;5.40;1.40
2174;DHT22;1093;51.424;11.764;2024-03-08T20:22:02;5.40;1.40
2174;DHT22;1093;51.424;11.764;2024-03-08T20:24:30;5.30;1.40
2174;DHT22;1093;51.424;11.764;2024-03-08T20:26:57;5.30;1.40
2174;DHT22;1093;51.424;11.764;2024-03-08T20:29:26;5.30;1.40
2174;DHT22;1093;51.424;11.764;2024-03-08T20:31:58;5.20;1.40
2174;DHT22;1093;51.424;11.764;2024-03-08T20:34:25;5.10;1.40
2174;DHT22;1093;51.424;11.764;2024-03-08T20:36:55;5.10;1.40
2174;DHT22;1093;51.424;11.764;2024-03-08T20:39:22;5.00;1.40
2174;DHT22;1093;51.424;11.764;2024-03-08T20:41:49;4.90;1.40
2174;DHT22;1093;51.424;11.764;2024-03-08T20:44:19;4.90;1.40
2174;DHT22;1093;51.424;11.764;2024-03-08T20:46:46;4.90;1.40
2174;DHT22;1093;51.424;11.764;2024-03-08T20:49:17;4.80;1.40
2174;DHT22;1093;51.424;11.764;2024-03-08T20:51:48;4.80;1.40
2174;DHT22;1093;51.424;11.764;2024-03-08T20:54:15;4.80;1.40
2174;DHT22;1093;51.424;11.764;2024-03-08T20:56:42;4.70;1.40
2174;DHT22;1093;51.424;11.764;2024-03-08T20:59:09;4.60;1.40
2174;DHT22;1093;51.424;11.764;2024-03-08T21:01:36;4.50;1.40
2174;DHT22;1093;51.424;11.764;2024-03-08T21:04:03;4.50;1.40
2174;DHT22;1093;51.424;11.764;2024-03-08T21:06:34;4.40;1.40
2174;DHT22;1093;51.424;11.764;2024-03-08T21:09:02;4.30;1.40
2174;DHT22;1093;51.424;11.764;2024-03-08T21:11:37;4.20;1.40
2174;DHT22;1093;51.424;11.764;2024-03-08T21:14:03;4.20;1.40
2174;DHT22;1093;51.424;11.764;2024-03-08T21:16:32;4.20;1.40
2174;DHT22;1093;51.424;11.764;2024-03-08T21:18:59;4.20;1.40
2174;DHT22;1093;51.424;11.764;2024-03-08T21:21:26;4.20;1.40
2174;DHT22;1093;51.424;11.764;2024-03-08T21:23:54;4.10;1.40
2174;DHT22;1093;51.424;11.764;2024-03-08T21:26:21;4.10;1.40
2174;DHT22;1093;51.424;11.764;2024-03-08T21:28:48;4.10;1.40
2174;DHT22;1093;51.424;11.764;2024-03-08T21:31:15;4.10;1.40
2174;DHT22;1093;51.424;11.764;2024-03-08T21:33:42;4.10;1.40
2174;DHT22;1093;51.424;11.764;2024-03-08T21:36:09;4.00;1.40
2174;DHT22;1093;51.424;11.764;2024-03-08T21:38:37;4.10;1.40
2174;DHT22;1093;51.424;11.764;2024-03-08T21:41:05;4.10;1.40
2174;DHT22;1093;51.424;11.764;2024-03-08T21:43:35;4.10;1.40
2174;DHT22;1093;51.424;11.764;2024-03-08T21:46:02;4.00;1.40
2174;DHT22;1093;51.424;11.764;2024-03-08T21:48:29;4.00;1.40
2174;DHT22;1093;51.424;11.764;2024-03-08T21:50:57;4.00;1.40
2174;DHT22;1093;51.424;11.764;2024-03-08T21:53:24;4.00;1.40
2174;DHT22;1093;51.424;11.764;2024-03-08T21:55:52;4.00;1.40
2174;DHT22;1093;51.424;11.764;2024-03-08T21:58:21;4.00;1.40
2174;DHT22;1093;51.424;11.764;2024-03-08T22:00:49;4.00;1.40
2174;DHT22;1093;51.424;11.764;2024-03-08T22:03:15;3.90;1.40
2174;DHT22;1093;51.424;11.764;2024-03-08T22:06:15;3.90;1.40
2174;DHT22;1093;51.424;11.764;2024-03-08T23:28:25;3.40;1.40
2174;DHT22;1093;51.424;11.764;2024-03-08T23:30:54;3.60;1.40
2174;DHT22;1093;51.424;11.764;2024-03-08T23:33:22;3.60;1.40
2174;DHT22;1093;51.424;11.764;2024-03-08T23:35:49;3.60;1.40
2174;DHT22;1093;51.424;11.764;2024-03-08T23:38:16;3.60;1.40
2174;DHT22;1093;51.424;11.764;2024-03-08T23:40:44;3.50;1.40
2174;DHT22;1093;51.424;11.764;2024-03-08T23:43:12;3.40;1.40
2174;DHT22;1093;51.424;11.764;2024-03-08T23:45:41;3.40;1.40
2174;DHT22;1093;51.424;11.764;2024-03-08T23:48:10;3.30;1.40
2174;DHT22;1093;51.424;11.764;2024-03-08T23:50:37;3.30;1.40
2174;DHT22;1093;51.424;11.764;2024-03-08T23:53:06;3.30;1.40
2174;DHT22;1093;51.424;11.764;2024-03-08T23:55:35;3.20;1.40
2174;DHT22;1093;51.424;11.764;2024-03-08T23:58:06;3.20;1.40
